Time;durP1;ratioP1;P1;durP2;ratioP2;P2;SDS_P1;SDS_P2;PMS_P1;PMS_P2;Temp;Humidity;BMP_temperature;BMP_pressure;BME280_temperature;BME280_humidity;BME280_pressure;Samples;Min_cycle;Max_cycle;Signal;HPM_P1;HPM_P2
2022/04/03 00:03:29;;;;;;;17.23;13.87;;;;;;;6.48;61.33;98871.91;6917748;28;20215;-86
2022/04/03 00:06:51;;;;;;;17.07;14.53;;;;;;;6.14;61.80;98872.25;6941501;28;20239;-85
2022/04/03 00:10:13;;;;;;;16.50;13.50;;;;;;;6.40;61.30;98875.47;6940078;28;20237;-86
2022/04/03 00:13:36;;;;;;;19.17;13.73;;;;;;;6.29;61.28;98859.81;6940964;28;20292;-85
2022/04/03 00:16:58;;;;;;;19.57;14.97;;;;;;;6.26;61.44;98883.44;6939824;28;20220;-86
2022/04/03 00:20:21;;;;;;;20.17;15.20;;;;;;;6.30;61.42;98882.06;6939835;28;20724;-86
2022/04/03 00:23:43;;;;;;;19.50;15.60;;;;;;;6.44;61.24;98868.75;6940936;28;20205;-86
2022/04/03 00:27:05;;;;;;;17.27;14.50;;;;;;;5.82;62.34;98826.09;6939388;28;20206;-84
2022/04/03 00:30:27;;;;;;;18.93;14.83;;;;;;;6.17;61.46;98877.28;6941082;28;20226;-84
2022/04/03 00:33:49;;;;;;;18.13;15.17;;;;;;;5.45;61.86;98815.22;6941536;28;20268;-84
2022/04/03 00:37:13;;;;;;;17.73;15.10;;;;;;;6.05;61.53;98856.44;6932548;28;20215;-85
2022/04/03 00:40:38;;;;;;;19.23;15.03;;;;;;;6.36;61.18;98881.38;6913045;28;20238;-88
2022/04/03 00:44:00;;;;;;;18.93;14.90;;;;;;;5.88;61.08;98839.63;6913484;28;20207;-87
2022/04/03 00:47:22;;;;;;;16.13;14.43;;;;;;;6.25;61.45;98887.94;6913166;28;20219;-85
2022/04/03 00:50:44;;;;;;;19.40;14.53;;;;;;;5.64;61.64;98817.47;6913585;28;20302;-85
2022/04/03 00:58:23;;;;;;;21.47;16.27;;;;;;;5.82;61.65;98842.16;6911173;28;20236;-85
2022/04/03 01:18:26;;;;;;;20.30;16.33;;;;;;;5.66;62.32;98893.03;6907440;28;20217;-84
2022/04/03 01:25:49;;;;;;;23.07;16.13;;;;;;;6.15;61.43;98892.69;6903935;28;20354;-85
2022/04/03 01:29:15;;;;;;;21.97;17.60;;;;;;;6.39;60.52;98899.75;6903686;28;20230;-85
2022/04/03 01:32:43;;;;;;;22.83;16.40;;;;;;;5.99;61.16;98907.97;6903986;28;20241;-84
2022/04/03 01:36:06;;;;;;;18.10;16.00;;;;;;;5.73;61.58;98908.19;6902782;28;20194;-85
2022/04/03 01:39:27;;;;;;;22.13;16.93;;;;;;;5.76;62.05;98907.03;6902806;28;20253;-84
2022/04/03 01:42:51;;;;;;;21.77;17.13;;;;;;;6.09;61.43;98908.59;6904557;28;20206;-84
2022/04/03 01:46:12;;;;;;;23.13;17.87;;;;;;;6.18;61.25;98903.03;6905151;28;20220;-84
2022/04/03 01:49:46;;;;;;;23.03;17.70;;;;;;;6.27;61.08;98906.50;6905254;28;20513;-83
2022/04/03 01:53:08;;;;;;;26.40;18.23;;;;;;;6.13;61.16;98885.84;6906111;28;20233;-84
2022/04/03 01:56:51;;;;;;;25.23;17.70;;;;;;;6.08;60.93;98914.97;6902732;28;20215;-84
2022/04/03 02:00:18;;;;;;;25.03;17.37;;;;;;;5.73;61.76;98913.56;6905013;28;20237;-84
2022/04/03 02:03:40;;;;;;;22.67;17.57;;;;;;;5.70;62.15;98905.03;6905197;28;20210;-84
2022/04/03 02:07:03;;;;;;;19.97;16.23;;;;;;;6.10;61.73;98907.59;6903779;28;20265;-84
2022/04/03 02:10:25;;;;;;;22.90;17.53;;;;;;;6.22;61.27;98908.88;6905355;28;20225;-86
2022/04/03 02:13:47;;;;;;;21.23;16.33;;;;;;;6.28;60.82;98879.56;6905307;28;20238;-84
2022/04/03 02:17:10;;;;;;;21.80;17.70;;;;;;;6.19;60.87;98879.78;6905691;28;20595;-85
2022/04/03 02:20:33;;;;;;;27.03;19.10;;;;;;;5.99;61.32;98916.00;6905871;28;20235;-84
2022/04/03 02:45:44;;;;;;;24.83;18.50;;;;;;;6.06;61.03;98928.53;6736740;29;20273;-85
2022/04/03 03:25:22;;;;;;;22.50;18.30;;;;;;;6.10;61.46;98931.69;6658212;29;20502;-84
2022/04/03 03:34:00;;;;;;;24.33;20.00;;;;;;;6.31;60.69;98918.53;6769133;29;20238;-85
2022/04/03 03:51:13;;;;;;;28.13;19.23;;;;;;;6.29;60.94;98924.06;6745205;29;20239;-84
2022/04/03 04:07:06;;;;;;;27.53;19.77;;;;;;;6.14;60.55;98938.38;7058085;27;20561;-74
2022/04/03 04:10:28;;;;;;;26.20;18.83;;;;;;;6.53;59.97;98955.22;7058575;28;20202;-74
2022/04/03 04:13:49;;;;;;;27.57;18.93;;;;;;;6.50;60.02;98948.41;7058491;28;20217;-74
2022/04/03 04:17:16;;;;;;;28.57;20.60;;;;;;;6.43;60.37;98952.75;7053227;28;20216;-75
2022/04/03 04:20:39;;;;;;;28.87;21.20;;;;;;;6.41;60.69;98954.78;7037725;28;20640;-75
2022/04/03 04:24:03;;;;;;;28.00;19.60;;;;;;;6.41;60.37;98951.28;7030035;28;20209;-75
2022/04/03 04:27:24;;;;;;;28.10;19.27;;;;;;;6.44;60.20;98962.50;7028999;28;20207;-75
2022/04/03 04:30:46;;;;;;;29.63;19.17;;;;;;;6.18;60.38;98956.56;7029650;28;20208;-75
2022/04/03 04:34:08;;;;;;;25.27;19.43;;;;;;;6.31;60.33;98956.84;7029338;28;20200;-75
2022/04/03 04:37:29;;;;;;;25.77;19.03;;;;;;;6.48;60.15;98953.09;7028843;28;20573;-75
2022/04/03 04:40:53;;;;;;;28.23;19.27;;;;;;;6.39;60.12;98970.22;7029081;28;20286;-75
2022/04/03 04:44:15;;;;;;;27.13;19.53;;;;;;;6.29;60.00;98963.38;7029763;28;20223;-75
2022/04/03 04:47:37;;;;;;;25.80;20.17;;;;;;;6.21;60.42;98971.47;7051021;28;20221;-75
2022/04/03 04:50:58;;;;;;;24.20;17.57;;;;;;;6.47;59.96;98986.22;7038580;28;20576;-77
2022/04/03 04:54:20;;;;;;;24.53;18.20;;;;;;;6.28;59.79;98973.28;7031247;28;20226;-84
2022/04/03 04:57:49;;;;;;;27.47;18.80;;;;;;;6.20;59.51;98943.84;7030768;28;20284;-75
2022/04/03 05:01:11;;;;;;;24.80;18.10;;;;;;;6.45;59.45;98979.38;7031400;28;20207;-76
2022/04/03 05:04:33;;;;;;;23.53;17.40;;;;;;;6.38;59.64;98987.25;7039058;28;20302;-76
2022/04/03 05:07:57;;;;;;;21.37;16.53;;;;;;;6.10;59.48;98974.50;7058561;28;20206;-77
2022/04/03 05:11:19;;;;;;;26.60;17.53;;;;;;;6.22;59.18;98957.06;7048754;28;20225;-83
2022/04/03 05:14:42;;;;;;;24.13;18.70;;;;;;;6.22;59.40;98997.22;7045389;28;20228;-75
2022/04/03 05:18:05;;;;;;;23.37;17.37;;;;;;;6.19;59.52;98979.66;7041246;28;20201;-75
2022/04/03 05:21:27;;;;;;;23.50;18.27;;;;;;;6.51;59.33;99003.63;7039434;28;20202;-75
2022/04/03 05:24:48;;;;;;;26.70;18.00;;;;;;;6.37;59.21;98998.16;7039199;28;20226;-75
2022/04/03 05:28:10;;;;;;;20.63;15.33;;;;;;;6.38;58.71;99006.00;7027746;28;20304;-74
2022/04/03 05:31:33;;;;;;;19.13;15.73;;;;;;;6.52;58.49;99007.13;7032530;28;20202;-75
2022/04/03 05:34:55;;;;;;;19.90;15.17;;;;;;;6.49;58.41;99002.13;7019773;28;20208;-75
2022/04/03 05:38:16;;;;;;;19.03;14.60;;;;;;;6.50;58.27;99010.00;7010291;28;20215;-75
2022/04/03 05:41:38;;;;;;;17.00;14.00;;;;;;;6.50;57.84;99020.72;7011648;28;20214;-75
2022/04/03 05:45:00;;;;;;;19.90;15.30;;;;;;;6.29;58.15;99015.09;7026370;28;20919;-75
2022/04/03 05:48:23;;;;;;;21.27;14.93;;;;;;;6.53;58.49;99017.66;7011517;28;20299;-75
2022/04/03 05:51:45;;;;;;;21.10;14.53;;;;;;;6.16;57.87;99030.03;7010495;28;20217;-75
2022/04/03 05:55:08;;;;;;;14.27;11.43;;;;;;;6.17;56.53;99029.88;7016442;28;20280;-74
2022/04/03 05:58:30;;;;;;;12.30;11.00;;;;;;;6.06;56.32;99027.56;6984064;28;20370;-75
2022/04/03 06:01:52;;;;;;;13.43;11.20;;;;;;;6.31;56.63;99039.03;7011084;28;20216;-75
2022/04/03 06:05:15;;;;;;;9.80;8.70;;;;;;;5.88;55.31;99051.00;7027205;28;20226;-75
2022/04/03 06:08:36;;;;;;;10.70;9.00;;;;;;;5.65;55.89;99036.63;7038189;28;20208;-75
2022/04/03 06:11:58;;;;;;;9.77;8.53;;;;;;;6.25;54.33;99034.38;7037455;28;20210;-76
2022/04/03 06:15:20;;;;;;;8.93;7.30;;;;;;;6.41;53.09;99045.84;7024174;28;20217;-75
2022/04/03 06:18:41;;;;;;;8.87;7.83;;;;;;;5.91;53.14;99061.38;7034908;28;20206;-75
2022/04/03 06:22:05;;;;;;;8.77;7.87;;;;;;;6.28;53.90;99053.59;7031686;28;20209;-75
2022/04/03 06:25:27;;;;;;;8.87;7.70;;;;;;;5.80;53.92;99069.75;7018369;28;20231;-75
2022/04/03 06:28:49;;;;;;;12.50;8.13;;;;;;;6.50;53.83;99043.97;7014509;28;20226;-75
2022/04/03 06:32:11;;;;;;;9.40;8.40;;;;;;;6.41;53.35;99047.69;7025039;27;20206;-75
2022/04/03 06:35:33;;;;;;;9.13;7.60;;;;;;;6.46;51.79;99048.84;7031825;28;20198;-80
2022/04/03 06:38:56;;;;;;;9.10;7.27;;;;;;;7.08;49.78;99063.91;7028067;28;20255;-77
2022/04/03 06:42:17;;;;;;;8.67;7.20;;;;;;;6.89;51.77;99060.88;7031362;28;20293;-76
2022/04/03 06:45:39;;;;;;;7.57;6.70;;;;;;;7.02;49.09;98913.72;7009100;28;20232;-76
2022/04/03 06:49:01;;;;;;;7.93;7.13;;;;;;;8.17;48.69;99073.28;7010213;28;20426;-77
2022/04/03 06:52:23;;;;;;;7.70;6.70;;;;;;;7.74;46.80;99055.22;7014544;28;20601;-80
2022/04/03 06:55:46;;;;;;;10.40;7.03;;;;;;;6.62;50.30;99005.06;7045056;28;20200;-83
2022/04/03 06:59:07;;;;;;;8.33;6.63;;;;;;;7.15;49.56;99085.50;7026787;28;20231;-82
2022/04/03 07:02:29;;;;;;;8.30;6.93;;;;;;;6.78;49.19;98951.41;7008963;28;20205;-79
2022/04/03 07:05:51;;;;;;;7.97;6.97;;;;;;;7.50;50.19;99087.63;7008980;28;20229;-82
2022/04/03 07:09:12;;;;;;;8.00;6.30;;;;;;;8.66;47.32;99079.81;7009686;28;20299;-79
2022/04/03 07:12:36;;;;;;;7.20;6.50;;;;;;;8.74;48.73;99077.88;7010676;28;20207;-76
2022/04/03 07:15:58;;;;;;;8.80;6.87;;;;;;;9.21;46.47;99094.41;7024002;28;20230;-77
2022/04/03 07:19:20;;;;;;;10.27;7.43;;;;;;;8.98;46.32;99091.81;7021414;28;20206;-77
2022/04/03 07:22:42;;;;;;;9.30;7.43;;;;;;;9.13;46.37;99095.34;7013567;28;20213;-77
2022/04/03 07:26:05;;;;;;;6.73;6.13;;;;;;;9.06;45.61;99093.56;7007245;28;20223;-77
2022/04/03 07:29:28;;;;;;;7.93;6.83;;;;;;;8.49;47.21;99102.53;7007916;28;20327;-77
2022/04/03 07:32:50;;;;;;;6.90;6.20;;;;;;;7.96;48.35;99103.50;7022924;28;20210;-76
2022/04/03 07:36:12;;;;;;;8.47;7.10;;;;;;;8.29;48.02;99104.06;7015441;28;20219;-77
2022/04/03 07:39:33;;;;;;;7.33;6.40;;;;;;;8.50;47.93;99104.19;7023934;28;20212;-77
2022/04/03 07:42:56;;;;;;;8.47;6.30;;;;;;;8.77;47.89;99107.06;7036501;28;20570;-77
2022/04/03 07:46:19;;;;;;;7.47;5.77;;;;;;;9.02;46.58;99112.97;7021180;28;20224;-77
2022/04/03 07:49:41;;;;;;;8.03;6.83;;;;;;;8.95;46.71;99123.63;7006258;28;20232;-76
2022/04/03 07:53:03;;;;;;;7.53;6.20;;;;;;;9.51;45.17;99131.78;7005660;28;20224;-76
2022/04/03 07:56:25;;;;;;;8.93;5.97;;;;;;;9.18;44.88;99137.78;7020991;28;20643;-78
2022/04/03 07:59:47;;;;;;;7.17;5.30;;;;;;;8.77;44.33;99143.88;7017103;28;20217;-76
2022/04/03 08:07:36;;;;;;;8.00;5.53;;;;;;;8.18;44.79;99147.44;7024509;28;20233;-76
2022/04/03 08:10:58;;;;;;;6.20;5.67;;;;;;;7.78;46.41;99153.97;7023752;28;20376;-74
2022/04/03 08:14:19;;;;;;;7.13;6.00;;;;;;;7.71;45.79;99147.66;7021212;28;20234;-74
2022/04/03 08:17:42;;;;;;;6.70;5.70;;;;;;;7.55;48.67;99163.88;7019698;28;20692;-73
2022/04/03 08:21:04;;;;;;;7.63;5.90;;;;;;;7.72;47.73;99151.19;7022736;28;20224;-78
2022/04/03 08:24:29;;;;;;;8.40;6.33;;;;;;;7.80;46.95;99124.28;7005972;28;20218;-78
2022/04/03 08:27:52;;;;;;;7.30;6.37;;;;;;;8.66;44.79;99155.09;7010522;28;20225;-77
2022/04/03 08:31:15;;;;;;;10.73;6.03;;;;;;;8.38;47.08;99156.72;7024853;28;20685;-76
2022/04/03 08:34:37;;;;;;;6.00;5.50;;;;;;;7.85;46.75;99138.81;7017018;28;20377;-76
2022/04/03 08:38:01;;;;;;;6.23;5.20;;;;;;;8.07;47.08;99169.38;7010662;28;20233;-76
2022/04/03 08:41:24;;;;;;;7.90;5.83;;;;;;;8.36;46.28;99137.25;7021904;28;20292;-76
2022/04/03 08:44:47;;;;;;;6.13;5.20;;;;;;;8.58;46.76;99169.44;7007948;28;20227;-76
2022/04/03 08:48:09;;;;;;;6.23;4.87;;;;;;;7.72;44.64;99176.16;7024136;28;20232;-76
2022/04/03 08:51:37;;;;;;;6.60;5.00;;;;;;;8.04;44.51;99177.78;7026189;28;20309;-79
2022/04/03 08:55:00;;;;;;;7.57;5.53;;;;;;;8.67;44.99;99175.56;7017057;28;20203;-78
2022/04/03 08:58:27;;;;;;;7.33;6.07;;;;;;;9.43;42.26;99160.66;7028026;28;20232;-78
2022/04/03 09:01:50;;;;;;;8.07;4.53;;;;;;;10.04;40.87;99158.25;7027007;28;20192;-78
2022/04/03 09:05:16;;;;;;;6.03;4.53;;;;;;;9.17;42.36;99163.03;7013489;28;20260;-79
2022/04/03 09:08:51;;;;;;;5.10;3.70;;;;;;;8.81;40.16;99151.38;7025179;28;20544;-80
2022/04/03 09:12:15;;;;;;;7.97;4.50;;;;;;;10.19;39.91;99152.78;7022550;28;20673;-79
2022/04/03 09:15:40;;;;;;;4.63;4.23;;;;;;;9.10;39.97;99171.00;7018529;28;20655;-79
2022/04/03 09:19:02;;;;;;;5.43;4.33;;;;;;;8.75;39.00;99081.38;7026838;28;20219;-79
2022/04/03 09:22:28;;;;;;;4.63;4.13;;;;;;;8.78;41.01;99170.53;7019657;28;20237;-79
2022/04/03 09:25:53;;;;;;;5.07;4.20;;;;;;;8.43;41.37;99147.06;7021929;28;20217;-77
2022/04/03 09:29:16;;;;;;;5.90;4.00;;;;;;;8.32;42.06;99170.88;7022843;28;20311;-78
2022/04/03 09:32:48;;;;;;;4.27;3.83;;;;;;;8.58;40.49;99174.81;7029247;28;20311;-81
2022/04/03 09:36:10;;;;;;;6.07;4.20;;;;;;;7.90;40.65;99124.88;7039963;28;20314;-79
2022/04/03 09:39:32;;;;;;;4.27;3.87;;;;;;;9.11;38.10;99169.97;7023486;28;20213;-79
2022/04/03 09:43:12;;;;;;;5.17;4.47;;;;;;;6.84;43.73;99186.53;7031439;28;20520;-82
2022/04/03 09:46:34;;;;;;;5.13;4.53;;;;;;;6.52;45.74;99192.78;7013893;28;20228;-80
2022/04/03 09:49:59;;;;;;;4.30;4.00;;;;;;;6.74;43.90;99084.91;7027098;28;20221;-79
2022/04/03 09:53:20;;;;;;;6.97;4.67;;;;;;;7.73;42.54;99191.25;7028562;28;20562;-80
2022/04/03 09:56:42;;;;;;;5.10;4.37;;;;;;;7.96;43.47;99193.97;7022570;28;20205;-80
2022/04/03 10:00:05;;;;;;;6.57;4.67;;;;;;;7.75;44.69;99097.16;7015660;28;20237;-81
2022/04/03 10:03:27;;;;;;;5.40;4.43;;;;;;;7.22;44.04;99075.75;7026889;28;20314;-78
2022/04/03 10:06:53;;;;;;;4.60;4.20;;;;;;;8.29;43.63;99182.81;7025838;28;20237;-76
2022/04/03 10:10:15;;;;;;;6.03;3.83;;;;;;;8.46;41.08;99187.03;7025808;28;20924;-79
2022/04/03 10:13:39;;;;;;;4.17;3.77;;;;;;;8.62;39.36;99186.88;7017218;28;20709;-77
2022/04/03 10:17:01;;;;;;;3.60;3.30;;;;;;;8.52;39.36;99182.75;7026721;28;20229;-77
2022/04/03 10:20:25;;;;;;;3.80;3.30;;;;;;;8.57;38.92;99191.09;7019535;28;20237;-77
2022/04/03 10:23:52;;;;;;;4.10;3.70;;;;;;;8.61;38.41;99184.34;7035726;28;20223;-77
2022/04/03 10:27:16;;;;;;;5.70;3.50;;;;;;;8.92;37.05;99177.81;7023097;28;20218;-77
2022/04/03 10:30:39;;;;;;;4.07;3.70;;;;;;;8.25;38.48;99188.72;7033199;28;20208;-77
2022/04/03 10:34:00;;;;;;;4.40;4.00;;;;;;;8.84;38.50;99188.63;7022539;28;20202;-78
2022/04/03 10:37:28;;;;;;;4.07;3.67;;;;;;;8.31;37.96;99172.72;7009634;28;20705;-78
2022/04/03 10:41:07;;;;;;;4.30;4.00;;;;;;;7.56;38.59;99172.78;7024005;28;20216;-77
2022/04/03 10:44:29;;;;;;;3.70;3.40;;;;;;;8.18;37.56;99171.63;7024989;28;20785;-76
2022/04/03 10:47:51;;;;;;;3.70;3.40;;;;;;;8.29;36.15;99172.06;7018544;28;20232;-77
2022/04/03 10:51:26;;;;;;;3.70;3.40;;;;;;;7.70;37.12;99174.69;7018009;28;20206;-77
2022/04/03 10:54:50;;;;;;;3.23;2.93;;;;;;;7.67;37.45;99181.22;7023487;28;20234;-77
2022/04/03 10:58:18;;;;;;;5.20;3.90;;;;;;;8.75;37.97;99151.28;7015916;28;20341;-77
2022/04/03 11:01:41;;;;;;;3.83;3.53;;;;;;;9.17;36.45;99173.78;7026372;28;20205;-77
2022/04/03 11:05:35;;;;;;;4.33;3.20;;;;;;;8.52;36.70;99161.25;7030786;28;20216;-77
2022/04/03 11:08:59;;;;;;;3.53;3.23;;;;;;;8.51;35.50;99163.13;7031950;28;20212;-76
2022/04/03 11:12:44;;;;;;;4.63;3.43;;;;;;;9.57;35.01;99162.50;7032051;28;20226;-77
2022/04/03 11:16:09;;;;;;;5.07;4.03;;;;;;;9.29;37.56;99169.59;7015877;28;20223;-77
2022/04/03 11:19:36;;;;;;;3.77;3.47;;;;;;;8.90;36.28;99125.22;7005324;28;20287;-76
2022/04/03 11:22:59;;;;;;;4.10;3.80;;;;;;;8.78;36.46;99159.78;7004005;28;20655;-77
2022/04/03 11:26:23;;;;;;;6.07;4.13;;;;;;;9.24;36.33;99163.94;7002676;28;20706;-77
2022/04/03 11:29:46;;;;;;;5.57;3.50;;;;;;;8.65;35.72;99027.06;7010121;28;20195;-77
2022/04/03 11:33:09;;;;;;;4.00;3.70;;;;;;;9.07;36.50;99164.34;7031609;28;20204;-77
2022/04/03 11:36:32;;;;;;;5.07;4.10;;;;;;;8.72;36.51;99155.16;7031216;28;20212;-76
2022/04/03 11:39:55;;;;;;;4.13;3.50;;;;;;;10.35;36.03;99157.91;7031430;28;20232;-76
2022/04/03 11:43:18;;;;;;;4.13;3.30;;;;;;;9.11;35.09;99156.53;7022596;28;20229;-76
2022/04/03 11:46:43;;;;;;;5.37;3.43;;;;;;;8.51;38.07;99146.16;7005313;28;20222;-77
2022/04/03 11:50:12;;;;;;;4.47;3.50;;;;;;;8.67;37.35;99038.47;7023132;28;20229;-78
2022/04/03 11:53:34;;;;;;;3.93;3.53;;;;;;;9.03;35.64;99153.13;7036241;28;20264;-78
2022/04/03 11:57:00;;;;;;;4.30;3.90;;;;;;;9.63;36.74;99148.28;7015696;28;20586;-78
2022/04/03 12:00:22;;;;;;;3.77;3.47;;;;;;;9.60;34.96;99148.63;7009028;28;20651;-77
2022/04/03 12:03:48;;;;;;;3.50;3.20;;;;;;;9.11;35.46;99134.19;7013606;28;20227;-78
2022/04/03 12:07:13;;;;;;;3.53;3.23;;;;;;;10.73;31.34;99143.88;7033132;28;20891;-81
2022/04/03 12:10:35;;;;;;;3.70;3.30;;;;;;;10.12;32.93;99127.66;7006308;28;20224;-79
2022/04/03 12:13:58;;;;;;;3.80;3.50;;;;;;;10.14;34.20;99141.75;7005643;28;20213;-80
2022/04/03 12:17:20;;;;;;;4.80;3.50;;;;;;;9.54;35.78;99144.00;7005412;28;20205;-78
2022/04/03 12:20:41;;;;;;;4.50;3.90;;;;;;;9.61;35.29;99153.00;7025985;28;20206;-77
2022/04/03 12:24:18;;;;;;;7.30;3.80;;;;;;;8.68;36.43;99110.88;7020989;28;20221;-78
2022/04/03 12:27:40;;;;;;;5.47;3.50;;;;;;;8.47;37.83;99064.25;7021744;28;20210;-77
2022/04/03 12:31:02;;;;;;;5.83;3.77;;;;;;;9.39;36.92;99135.97;7028528;28;20205;-79
2022/04/03 12:34:25;;;;;;;3.40;3.10;;;;;;;9.41;35.35;99131.25;7017034;28;20200;-81
2022/04/03 12:37:47;;;;;;;5.37;3.87;;;;;;;10.08;33.92;99135.28;7027061;28;20729;-80
2022/04/03 12:41:10;;;;;;;4.37;3.93;;;;;;;9.91;34.44;99141.94;7040409;28;20217;-79
2022/04/03 12:44:32;;;;;;;4.97;3.40;;;;;;;9.38;33.56;99096.66;7035534;28;20262;-79
2022/04/03 12:47:59;;;;;;;3.50;3.20;;;;;;;9.59;33.59;99120.06;7008606;28;20839;-79
2022/04/03 12:51:21;;;;;;;4.47;3.70;;;;;;;9.73;33.36;99132.63;7008360;28;20205;-79
2022/04/03 12:54:45;;;;;;;3.70;3.40;;;;;;;9.51;33.81;99087.88;7013082;28;20217;-89
2022/04/03 12:58:27;;;;;;;3.77;3.43;;;;;;;8.97;33.40;99040.94;7012280;28;20221;-90
2022/04/03 13:01:56;;;;;;;4.33;3.80;;;;;;;9.55;32.95;99073.84;7010831;28;20217;-88
2022/04/03 13:05:18;;;;;;;5.63;3.30;;;;;;;9.39;35.75;99135.16;7010605;28;20300;-87
2022/04/03 13:08:50;;;;;;;3.83;3.40;;;;;;;8.26;36.25;99026.56;7014547;28;20232;-90
2022/04/03 13:12:15;;;;;;;3.60;3.30;;;;;;;8.11;36.34;99096.34;7016762;28;20216;-89
2022/04/03 13:15:42;;;;;;;5.53;4.73;;;;;;;7.99;35.46;99067.41;7032367;28;20217;-89
2022/04/03 13:19:05;;;;;;;3.90;3.60;;;;;;;8.49;36.47;99103.34;7010876;28;20209;-90
2022/04/03 13:22:26;;;;;;;4.23;3.87;;;;;;;8.41;34.46;99022.00;7008703;28;20219;-86
2022/04/03 13:25:49;;;;;;;4.80;3.93;;;;;;;9.39;35.03;99092.09;7007375;28;20196;-86
2022/04/03 13:29:12;;;;;;;4.73;3.40;;;;;;;8.56;34.28;99052.38;7008716;28;20701;-88
2022/04/03 13:32:39;;;;;;;4.10;3.73;;;;;;;9.31;35.32;99124.50;7008785;28;20249;-88
2022/04/03 13:36:00;;;;;;;4.07;3.57;;;;;;;8.30;35.70;99038.59;7006656;28;20211;-79
2022/04/03 13:39:23;;;;;;;4.43;3.53;;;;;;;9.19;35.43;99123.31;7010630;28;20208;-89
2022/04/03 13:42:45;;;;;;;8.20;3.47;;;;;;;9.46;36.13;99134.19;7031068;28;20612;-79
2022/04/03 13:46:07;;;;;;;4.43;3.77;;;;;;;9.47;32.52;99121.59;7018381;28;20226;-79
2022/04/03 13:49:34;;;;;;;3.83;3.40;;;;;;;9.24;32.97;99086.78;7028258;28;20220;-85
2022/04/03 13:52:56;;;;;;;3.73;3.00;;;;;;;10.01;32.08;99110.13;7021013;28;20201;-80
2022/04/03 13:56:19;;;;;;;4.13;3.23;;;;;;;9.16;31.55;99013.44;7013607;28;20226;-78
2022/04/03 13:59:41;;;;;;;4.00;3.60;;;;;;;10.52;32.65;99095.38;7026096;28;20198;-79
2022/04/03 14:03:02;;;;;;;7.27;4.17;;;;;;;10.59;32.42;99106.22;7027658;28;20205;-79
2022/04/03 14:06:26;;;;;;;3.70;3.40;;;;;;;10.83;30.95;99086.88;7013051;28;20217;-79
2022/04/03 14:09:48;;;;;;;3.90;3.20;;;;;;;10.27;30.12;99096.88;7018465;28;20331;-78
2022/04/03 14:13:10;;;;;;;3.50;3.20;;;;;;;9.38;31.45;99106.56;7017966;28;20202;-78
2022/04/03 14:16:33;;;;;;;3.50;3.13;;;;;;;10.09;31.54;99083.06;7016089;28;20225;-78
2022/04/03 14:19:54;;;;;;;4.03;3.50;;;;;;;9.48;32.48;99107.94;7027273;28;20209;-78
2022/04/03 14:23:17;;;;;;;4.27;3.63;;;;;;;9.39;32.73;99109.06;7032054;28;20201;-78
2022/04/03 14:26:39;;;;;;;4.43;3.57;;;;;;;10.11;33.82;99099.03;7032608;28;20587;-78
2022/04/03 14:30:03;;;;;;;4.43;4.03;;;;;;;9.51;34.90;99075.25;7034325;28;20212;-78
2022/04/03 14:33:25;;;;;;;4.60;4.10;;;;;;;9.84;34.68;99114.09;7012612;28;20247;-78
2022/04/03 14:36:46;;;;;;;3.60;3.30;;;;;;;8.64;35.88;99116.78;6990471;28;20236;-79
2022/04/03 14:40:10;;;;;;;4.07;3.73;;;;;;;9.07;34.89;99093.41;7008170;28;20206;-77
2022/04/03 14:43:32;;;;;;;4.83;3.80;;;;;;;8.92;34.56;99061.34;7007559;28;20579;-78
2022/04/03 14:46:54;;;;;;;3.50;3.20;;;;;;;9.29;34.92;99111.25;7010706;28;20255;-78
2022/04/03 14:50:17;;;;;;;3.70;3.40;;;;;;;8.50;35.17;99109.56;7028511;28;20667;-77
2022/04/03 14:53:39;;;;;;;8.83;5.83;;;;;;;9.81;34.12;99106.41;7033387;28;20197;-78
2022/04/03 14:57:03;;;;;;;4.60;3.53;;;;;;;9.82;33.88;99097.31;7034624;28;20228;-78
2022/04/03 15:00:25;;;;;;;4.03;3.63;;;;;;;9.93;33.37;99112.94;7033443;28;20203;-78
2022/04/03 15:03:47;;;;;;;3.90;3.50;;;;;;;10.37;32.57;99112.69;7032244;28;20585;-78
2022/04/03 15:07:10;;;;;;;4.57;3.60;;;;;;;9.39;33.46;99111.75;7011990;28;20217;-78
2022/04/03 15:10:32;;;;;;;4.93;4.07;;;;;;;9.51;33.56;99099.47;7020862;28;20204;-80
2022/04/03 15:13:56;;;;;;;4.10;3.77;;;;;;;8.85;33.73;98991.34;7024191;28;20205;-76
2022/04/03 15:17:18;;;;;;;3.97;3.57;;;;;;;9.98;33.46;99090.81;7021815;28;20603;-76
2022/04/03 15:20:39;;;;;;;6.60;5.13;;;;;;;9.09;34.64;99120.13;7013710;28;20608;-76
2022/04/03 15:24:01;;;;;;;3.77;3.17;;;;;;;8.88;33.23;99114.66;7006378;28;20583;-76
2022/04/03 15:27:23;;;;;;;4.73;3.87;;;;;;;9.58;32.57;99118.41;7008937;28;20224;-76
2022/04/03 15:30:47;;;;;;;5.70;4.63;;;;;;;10.04;33.46;99107.06;7033201;28;20673;-76
2022/04/03 15:34:08;;;;;;;6.13;4.10;;;;;;;10.27;32.66;99117.63;7021745;28;20564;-76
2022/04/03 15:37:32;;;;;;;6.60;3.70;;;;;;;10.30;32.02;99122.59;7007006;28;20590;-79
2022/04/03 15:40:54;;;;;;;4.23;3.30;;;;;;;9.72;32.43;99107.56;7006925;28;20427;-78
2022/04/03 15:44:19;;;;;;;4.03;3.63;;;;;;;9.66;32.10;99112.88;7034267;28;20221;-83
2022/04/03 15:47:44;;;;;;;4.00;3.70;;;;;;;9.74;31.67;99023.91;7035850;28;20317;-86
2022/04/03 15:51:06;;;;;;;3.93;3.63;;;;;;;8.59;32.30;98960.63;7032144;28;20288;-82
2022/04/03 15:54:28;;;;;;;4.67;3.60;;;;;;;10.60;32.43;99110.59;7035097;28;20691;-82
2022/04/03 15:57:51;;;;;;;4.80;4.30;;;;;;;10.71;31.71;99056.94;7032794;28;20568;-83
2022/04/03 16:01:16;;;;;;;6.10;4.67;;;;;;;10.31;31.50;99060.44;7030187;28;20213;-83
2022/04/03 16:04:39;;;;;;;4.03;3.60;;;;;;;10.30;31.83;99020.22;7006243;28;20213;-83
2022/04/03 16:08:02;;;;;;;3.50;3.27;;;;;;;9.95;32.31;99123.53;7010827;28;20232;-77
2022/04/03 16:11:24;;;;;;;4.83;3.13;;;;;;;8.81;33.43;99113.72;7007728;28;20217;-78
2022/04/03 16:14:46;;;;;;;3.47;3.17;;;;;;;8.95;34.13;99120.94;7030171;28;20200;-79
2022/04/03 16:18:08;;;;;;;3.93;3.17;;;;;;;7.77;35.33;99061.06;7032106;28;20208;-79
2022/04/03 16:21:31;;;;;;;3.63;3.27;;;;;;;8.82;34.41;99136.91;7032436;28;20220;-78
2022/04/03 16:24:53;;;;;;;4.50;3.50;;;;;;;9.09;34.02;99103.97;7025290;28;20229;-79
2022/04/03 16:28:16;;;;;;;8.17;4.03;;;;;;;9.07;34.41;99124.81;7004238;28;20225;-79
2022/04/03 16:31:38;;;;;;;4.13;3.50;;;;;;;8.36;34.90;99115.78;7004910;28;20241;-79
2022/04/03 16:34:59;;;;;;;4.80;3.60;;;;;;;9.22;33.99;99126.47;7004101;28;20217;-79
2022/04/03 16:38:23;;;;;;;4.77;3.60;;;;;;;9.00;34.08;99148.13;7008486;28;20208;-78
2022/04/03 16:41:47;;;;;;;6.50;3.80;;;;;;;8.77;33.84;99130.44;7032053;28;20201;-78
2022/04/03 16:45:09;;;;;;;3.87;3.17;;;;;;;7.97;33.80;98992.44;7030028;28;20223;-78
2022/04/03 16:48:35;;;;;;;4.63;3.97;;;;;;;9.57;33.66;99140.97;7030232;28;20221;-78
2022/04/03 16:51:57;;;;;;;3.50;3.20;;;;;;;9.44;33.01;99138.09;7030428;28;20196;-78
2022/04/03 16:55:20;;;;;;;4.97;4.47;;;;;;;8.60;34.28;99135.13;7034360;28;20201;-79
2022/04/03 16:58:43;;;;;;;4.47;4.07;;;;;;;8.27;34.25;99109.66;7033371;28;20203;-91
2022/04/03 17:02:06;;;;;;;5.43;4.13;;;;;;;8.97;33.68;99150.34;7034106;28;20754;-91
2022/04/03 17:05:28;;;;;;;5.70;3.40;;;;;;;8.93;33.74;99096.09;7032911;28;20211;-85
2022/04/03 17:08:53;;;;;;;4.10;3.50;;;;;;;8.80;33.85;99027.88;7032968;28;20678;-87
2022/04/03 17:12:16;;;;;;;4.90;4.40;;;;;;;8.57;33.21;99013.75;7036190;28;20212;-86
2022/04/03 17:15:39;;;;;;;7.83;6.10;;;;;;;8.97;34.15;99142.28;7039020;28;20218;-85
2022/04/03 17:19:03;;;;;;;5.57;3.83;;;;;;;8.98;34.18;99160.94;7040786;28;20196;-87
2022/04/03 17:22:25;;;;;;;4.43;3.83;;;;;;;8.24;32.73;98974.88;7039245;28;20725;-86
2022/04/03 17:25:49;;;;;;;10.30;6.57;;;;;;;9.03;32.63;99080.53;7039367;28;20266;-83
2022/04/03 17:29:14;;;;;;;9.37;6.07;;;;;;;8.75;33.14;99170.09;7038663;28;20225;-86
2022/04/03 17:32:36;;;;;;;6.77;5.40;;;;;;;9.47;33.54;99172.72;7035041;28;20223;-79
2022/04/03 17:36:01;;;;;;;4.63;4.20;;;;;;;8.37;33.59;98975.88;7017978;28;20233;-88
2022/04/03 17:39:25;;;;;;;5.30;4.80;;;;;;;8.65;34.32;99035.97;7010870;28;20201;-83
2022/04/03 17:42:47;;;;;;;4.97;4.47;;;;;;;9.55;34.04;99164.53;7015846;28;20204;-83
2022/04/03 17:46:10;;;;;;;5.00;4.40;;;;;;;9.69;33.21;99177.13;6991054;28;20205;-83
2022/04/03 17:49:32;;;;;;;5.53;4.93;;;;;;;9.03;38.41;99073.28;7009820;28;20230;-83
2022/04/03 17:52:54;;;;;;;6.50;4.50;;;;;;;9.59;38.30;99184.66;7026399;28;20212;-82
2022/04/03 17:56:17;;;;;;;7.43;6.40;;;;;;;9.39;40.40;99176.34;7034158;28;20701;-80
2022/04/03 17:59:39;;;;;;;6.23;5.63;;;;;;;9.21;40.99;99188.53;7022271;28;20193;-78
2022/04/03 18:03:03;;;;;;;7.17;4.97;;;;;;;9.17;41.68;99166.53;7033996;28;20220;-79